createdAt,value
2016-08-25T00:00:02.773Z,20.83
2016-08-25T00:01:15.956Z,20.85
2016-08-25T00:02:28.950Z,20.82
2016-08-25T00:03:41.929Z,20.75
2016-08-25T00:04:54.909Z,20.71
2016-08-25T00:06:07.896Z,20.75
2016-08-25T00:07:20.875Z,20.76
2016-08-25T00:08:33.853Z,20.67
2016-08-25T00:09:47.040Z,20.75
2016-08-25T00:11:00.239Z,20.71
2016-08-25T00:12:13.216Z,20.75
2016-08-25T00:13:26.399Z,20.76
2016-08-25T00:14:39.576Z,20.67
2016-08-25T00:15:52.552Z,20.63
2016-08-25T00:17:05.541Z,20.61
2016-08-25T00:18:18.530Z,20.6
2016-08-25T00:19:31.516Z,20.56
2016-08-25T00:20:44.513Z,20.53
2016-08-25T00:21:57.699Z,20.37
2016-08-25T00:23:10.686Z,20.41
2016-08-25T00:24:23.668Z,20.41
2016-08-25T00:25:36.654Z,20.35
2016-08-25T00:26:49.646Z,20.3
2016-08-25T00:28:02.632Z,20.26
2016-08-25T00:29:15.616Z,20.25
2016-08-25T00:30:28.598Z,20.22
2016-08-25T00:31:41.588Z,20.22
2016-08-25T00:32:54.558Z,20.22
2016-08-25T00:34:07.540Z,20.35
2016-08-25T00:35:20.525Z,20.34
2016-08-25T00:36:33.510Z,20.32
2016-08-25T00:37:46.488Z,20.3
2016-08-25T00:38:59.463Z,20.26
2016-08-25T00:40:12.447Z,20.25
2016-08-25T00:41:25.443Z,20.25
2016-08-25T00:42:38.451Z,20.25
2016-08-25T00:43:51.434Z,20.23
2016-08-25T00:45:04.432Z,20.23
2016-08-25T00:46:17.416Z,20.22
2016-08-25T00:47:30.403Z,20.2
2016-08-25T00:48:43.390Z,20.25
2016-08-25T00:49:56.383Z,20.11
2016-08-25T00:51:09.383Z,20.15
2016-08-25T00:52:22.375Z,20.07
2016-08-25T00:53:35.503Z,19.95
2016-08-25T00:54:48.490Z,20
2016-08-25T00:56:01.482Z,20.1
2016-08-25T00:57:14.475Z,20
2016-08-25T00:58:27.454Z,20.01
2016-08-25T00:59:40.439Z,19.95
2016-08-25T01:00:53.427Z,19.9
2016-08-25T01:02:06.418Z,19.8
2016-08-25T01:03:19.413Z,19.95
2016-08-25T01:04:32.402Z,19.89
2016-08-25T01:05:45.377Z,19.95
2016-08-25T01:06:58.559Z,19.97
2016-08-25T01:08:11.545Z,20.01
2016-08-25T01:09:24.530Z,20.01
2016-08-25T01:10:37.511Z,19.93
2016-08-25T01:11:50.499Z,19.89
2016-08-25T01:13:03.479Z,19.78
2016-08-25T01:14:16.475Z,19.82
2016-08-25T01:15:29.482Z,19.65
2016-08-25T01:16:42.469Z,19.65
2016-08-25T01:17:55.449Z,19.55
2016-08-25T01:19:08.427Z,19.56
2016-08-25T01:20:21.407Z,19.6
2016-08-25T01:21:34.387Z,19.71
2016-08-25T01:22:47.375Z,19.6
2016-08-25T01:24:00.365Z,19.65
2016-08-25T01:25:13.544Z,19.68
2016-08-25T01:26:26.527Z,19.68
2016-08-25T01:27:39.509Z,19.68
2016-08-25T01:28:52.699Z,19.67
2016-08-25T01:30:05.681Z,19.65
2016-08-25T01:31:18.664Z,19.61
2016-08-25T01:32:31.661Z,19.55
2016-08-25T01:33:44.644Z,19.61
2016-08-25T01:34:57.637Z,19.6
2016-08-25T01:36:10.613Z,19.64
2016-08-25T01:37:23.615Z,19.5
2016-08-25T01:38:36.803Z,19.61
2016-08-25T01:39:49.781Z,19.43
2016-08-25T01:41:02.758Z,19.55
2016-08-25T01:42:15.732Z,19.57
2016-08-25T01:43:28.722Z,19.55
2016-08-25T01:44:41.691Z,19.47
2016-08-25T01:45:54.875Z,19.47
2016-08-25T01:47:07.859Z,19.38
2016-08-25T01:48:20.844Z,19.42
2016-08-25T01:49:33.819Z,19.3
2016-08-25T01:50:46.797Z,19.25
2016-08-25T01:51:59.781Z,19.27
2016-08-25T01:53:12.768Z,19.25
2016-08-25T01:54:25.804Z,19.23
2016-08-25T01:55:38.777Z,19.24
2016-08-25T01:56:51.961Z,19.19
2016-08-25T01:58:04.944Z,19.23
2016-08-25T01:59:17.930Z,19.16
2016-08-25T02:00:31.346Z,19.16
2016-08-25T02:01:44.335Z,19.13
2016-08-25T02:02:57.316Z,19.06
2016-08-25T02:04:10.304Z,19.13
2016-08-25T02:05:23.283Z,19.24
2016-08-25T02:06:36.260Z,19.12
2016-08-25T02:07:49.239Z,19.15
2016-08-25T02:09:02.221Z,19.15
2016-08-25T02:10:15.198Z,19.09
2016-08-25T02:11:28.179Z,19.02
2016-08-25T02:12:41.164Z,19.02
2016-08-25T02:13:54.139Z,18.99
2016-08-25T02:15:07.128Z,19.1
2016-08-25T02:16:20.104Z,19.1
2016-08-25T02:17:33.093Z,19.13
2016-08-25T02:18:46.077Z,19.07
2016-08-25T02:19:59.072Z,19.12
2016-08-25T02:21:12.252Z,19.12
2016-08-25T02:22:25.433Z,19.13
2016-08-25T02:23:38.424Z,19.02
2016-08-25T02:24:52.027Z,19.02
2016-08-25T02:26:05.013Z,19.09
2016-08-25T02:27:17.988Z,19.05
2016-08-25T02:28:30.969Z,18.94
2016-08-25T02:29:43.954Z,19.02
2016-08-25T02:30:56.938Z,18.96
2016-08-25T02:32:09.931Z,18.9
2016-08-25T02:33:22.921Z,18.93
2016-08-25T02:34:35.931Z,18.97
2016-08-25T02:35:48.910Z,18.76
2016-08-25T02:37:01.886Z,18.78
2016-08-25T02:38:14.881Z,18.84
2016-08-25T02:39:27.867Z,18.84
2016-08-25T02:40:40.840Z,18.75
2016-08-25T02:41:53.821Z,18.79
2016-08-25T02:43:06.818Z,18.82
2016-08-25T02:44:19.809Z,18.75
2016-08-25T02:45:32.807Z,18.66
2016-08-25T02:46:45.793Z,18.66
2016-08-25T02:47:58.775Z,18.56
2016-08-25T02:49:11.961Z,18.57
2016-08-25T02:50:25.144Z,18.61
2016-08-25T02:51:38.122Z,18.56
2016-08-25T02:52:51.336Z,18.51
2016-08-25T02:54:04.337Z,18.5
2016-08-25T02:55:17.371Z,18.5
2016-08-25T02:56:30.354Z,18.51
2016-08-25T02:57:43.331Z,18.57
2016-08-25T02:58:56.329Z,18.59
2016-08-25T03:00:09.516Z,18.57
2016-08-25T03:01:22.700Z,18.65
2016-08-25T03:02:35.684Z,18.66
2016-08-25T03:03:48.657Z,18.57
2016-08-25T03:05:01.650Z,18.56
2016-08-25T03:06:14.646Z,18.51
2016-08-25T03:07:27.629Z,18.47
2016-08-25T03:08:40.612Z,18.49
2016-08-25T03:09:53.804Z,18.53
2016-08-25T03:11:06.788Z,18.56
2016-08-25T03:12:19.767Z,18.53
2016-08-25T03:13:32.744Z,18.45
2016-08-25T03:14:45.730Z,18.44
2016-08-25T03:15:58.905Z,18.49
2016-08-25T03:17:11.877Z,18.45
2016-08-25T03:18:24.855Z,18.38
2016-08-25T03:19:37.833Z,18.47
2016-08-25T03:20:50.819Z,18.47
2016-08-25T03:22:03.793Z,18.42
2016-08-25T03:23:16.778Z,18.41
2016-08-25T03:24:29.753Z,18.42
2016-08-25T03:25:42.750Z,18.5
2016-08-25T03:26:55.933Z,18.32
2016-08-25T03:28:08.907Z,18.31
2016-08-25T03:29:21.880Z,18.45
2016-08-25T03:30:34.867Z,18.49
2016-08-25T03:31:47.847Z,18.24
2016-08-25T03:33:00.828Z,18.32
2016-08-25T03:34:13.811Z,18.39
2016-08-25T03:35:26.992Z,18.39
2016-08-25T03:36:39.970Z,18.34
2016-08-25T03:37:52.954Z,18.32
2016-08-25T03:39:06.335Z,18.27
2016-08-25T03:40:19.317Z,18.34
2016-08-25T03:41:32.314Z,18.32
2016-08-25T03:42:45.296Z,18.27
2016-08-25T03:43:58.273Z,18.39
2016-08-25T03:45:11.256Z,18.32
2016-08-25T03:46:24.235Z,18.35
2016-08-25T03:47:37.209Z,18.26
2016-08-25T03:48:50.606Z,18.23
2016-08-25T03:50:03.594Z,18.21
2016-08-25T03:51:16.565Z,18.23
2016-08-25T03:52:29.568Z,18.19
2016-08-25T03:53:42.551Z,18.08
2016-08-25T03:54:55.529Z,18.08
2016-08-25T03:56:08.568Z,18.13
2016-08-25T03:57:21.561Z,18.16
2016-08-25T03:58:34.548Z,18.14
2016-08-25T03:59:47.532Z,18.16
2016-08-25T04:01:00.712Z,18.06
2016-08-25T04:02:13.697Z,18.1
2016-08-25T04:03:26.880Z,18.08
2016-08-25T04:04:39.859Z,18.03
2016-08-25T04:05:52.843Z,18.03
2016-08-25T04:07:05.811Z,18.01
2016-08-25T04:08:18.997Z,18.05
2016-08-25T04:09:31.978Z,18.02
2016-08-25T04:10:44.965Z,18.03
2016-08-25T04:11:57.957Z,18.02
2016-08-25T04:13:10.943Z,18.08
2016-08-25T04:14:24.133Z,18.06
2016-08-25T04:15:37.105Z,18.08
2016-08-25T04:16:50.081Z,18.08
2016-08-25T04:18:03.058Z,18.05
2016-08-25T04:19:16.028Z,18.14
2016-08-25T04:20:29.016Z,18.1
2016-08-25T04:21:42.001Z,18.13
2016-08-25T04:22:54.988Z,18.08
2016-08-25T04:24:07.973Z,18.08
2016-08-25T04:25:20.961Z,18.03
2016-08-25T04:26:33.936Z,18.08
2016-08-25T04:27:46.922Z,18.14
2016-08-25T04:28:59.914Z,18.08
2016-08-25T04:30:12.889Z,18.02
2016-08-25T04:31:25.862Z,18.03
2016-08-25T04:32:38.834Z,18.02
2016-08-25T04:33:52.010Z,18.1
2016-08-25T04:35:04.998Z,18.11
2016-08-25T04:36:17.976Z,18.06
2016-08-25T04:37:30.961Z,17.99
2016-08-25T04:38:43.954Z,18.06
2016-08-25T04:39:57.138Z,18.01
2016-08-25T04:41:10.119Z,18.06
2016-08-25T04:42:23.098Z,18.01
2016-08-25T04:43:36.082Z,18.05
2016-08-25T04:44:49.063Z,18.05
2016-08-25T04:46:02.049Z,18.02
2016-08-25T04:47:15.032Z,18.1
2016-08-25T04:48:28.216Z,17.99
2016-08-25T04:49:41.401Z,18.01
2016-08-25T04:50:54.382Z,17.95
2016-08-25T04:52:07.363Z,17.95
2016-08-25T04:53:20.549Z,18.02
2016-08-25T04:54:33.536Z,17.99
2016-08-25T04:55:46.517Z,18.01
2016-08-25T04:56:59.541Z,18.02
2016-08-25T04:58:12.515Z,18.01
2016-08-25T04:59:25.496Z,18.02
2016-08-25T05:00:38.488Z,17.95
2016-08-25T05:01:51.671Z,17.98
2016-08-25T05:03:04.649Z,18.02
2016-08-25T05:04:17.830Z,17.99
2016-08-25T05:05:30.812Z,18.05
2016-08-25T05:06:43.789Z,17.99
2016-08-25T05:07:56.782Z,18.06
2016-08-25T05:09:09.757Z,18.11
2016-08-25T05:10:22.745Z,18.13
2016-08-25T05:11:35.926Z,18.11
2016-08-25T05:12:48.938Z,18.11
2016-08-25T05:14:01.922Z,18.11
2016-08-25T05:15:14.900Z,18.11
2016-08-25T05:16:28.077Z,18.11
2016-08-25T05:17:41.061Z,18.17
2016-08-25T05:18:54.039Z,18.17
2016-08-25T05:20:07.022Z,18.19
2016-08-25T05:21:19.992Z,18.31
2016-08-25T05:22:33.164Z,18.2
2016-08-25T05:23:46.150Z,18.19
2016-08-25T05:24:59.132Z,18.19
2016-08-25T05:26:12.107Z,18.32
2016-08-25T05:27:25.092Z,18.32
2016-08-25T05:28:38.067Z,18.35
2016-08-25T05:29:51.038Z,18.35
2016-08-25T05:31:04.042Z,18.31
2016-08-25T05:32:17.216Z,18.34
2016-08-25T05:33:30.203Z,18.36
2016-08-25T05:34:43.183Z,18.49
2016-08-25T05:35:56.158Z,18.47
2016-08-25T05:37:09.152Z,18.54
2016-08-25T05:38:22.126Z,18.49
2016-08-25T05:39:35.105Z,18.47
2016-08-25T05:40:48.085Z,18.49
2016-08-25T05:42:01.065Z,18.5
2016-08-25T05:43:14.040Z,18.57
2016-08-25T05:44:27.016Z,18.6
2016-08-25T05:45:41.709Z,18.66
2016-08-25T05:46:54.692Z,18.72
2016-08-25T05:48:07.673Z,18.69
2016-08-25T05:49:20.882Z,18.69
2016-08-25T05:50:33.878Z,18.75
2016-08-25T05:51:46.857Z,18.79
2016-08-25T05:52:59.853Z,18.78
2016-08-25T05:54:12.950Z,18.76
2016-08-25T05:55:25.930Z,18.96
2016-08-25T05:56:38.907Z,18.93
2016-08-25T05:57:51.955Z,18.99
2016-08-25T05:59:04.937Z,18.99
2016-08-25T06:00:17.936Z,19.06
2016-08-25T06:01:30.920Z,19.12
2016-08-25T06:02:43.911Z,19.12
2016-08-25T06:03:56.891Z,19.13
2016-08-25T06:05:09.870Z,19.09
2016-08-25T06:06:22.836Z,19.19
2016-08-25T06:07:35.814Z,19.27
2016-08-25T06:08:49.006Z,19.31
2016-08-25T06:10:01.986Z,19.32
2016-08-25T06:11:14.969Z,19.42
2016-08-25T06:12:27.955Z,19.45
2016-08-25T06:13:40.973Z,19.47
2016-08-25T06:14:56.307Z,19.52
2016-08-25T06:16:09.299Z,19.6
2016-08-25T06:17:22.292Z,19.6
2016-08-25T06:18:35.289Z,19.67
2016-08-25T06:19:48.417Z,19.67
2016-08-25T06:21:01.455Z,19.65
2016-08-25T06:22:14.471Z,19.74
2016-08-25T06:23:27.851Z,19.79
2016-08-25T06:24:42.415Z,19.92
2016-08-25T06:25:55.388Z,19.83
2016-08-25T06:27:08.378Z,19.87
2016-08-25T06:28:21.574Z,19.97
2016-08-25T06:29:34.556Z,19.98
2016-08-25T06:30:49.063Z,20.15
2016-08-25T06:32:02.110Z,20.05
2016-08-25T06:33:15.111Z,20.26
2016-08-25T06:34:28.940Z,20.29
2016-08-25T06:35:42.801Z,20.32
2016-08-25T06:36:55.785Z,20.41
2016-08-25T06:38:08.811Z,20.57
2016-08-25T06:39:23.598Z,20.98
2016-08-25T06:40:38.962Z,21.58
2016-08-25T06:41:55.272Z,22.39
2016-08-25T06:43:10.597Z,23.07
2016-08-25T06:44:24.366Z,23.77
2016-08-25T06:45:39.043Z,24.32
2016-08-25T06:46:53.179Z,24.97
2016-08-25T06:48:07.741Z,25.49
2016-08-25T06:49:21.996Z,25.99
2016-08-25T06:50:35.609Z,26.63
2016-08-25T06:51:49.427Z,27.01
2016-08-25T06:53:03.192Z,27.28
2016-08-25T06:54:16.893Z,27.72
2016-08-25T06:55:30.374Z,28.01
2016-08-25T06:56:43.377Z,28.26
2016-08-25T06:57:56.417Z,28.41
2016-08-25T06:59:09.407Z,28.8
2016-08-25T07:00:22.416Z,29.11
2016-08-25T07:01:35.401Z,29.23
2016-08-25T07:02:52.609Z,29.69
2016-08-25T07:04:09.987Z,30.02
2016-08-25T07:05:24.969Z,30.29
2016-08-25T07:06:39.379Z,30.57
2016-08-25T07:07:58.027Z,30.94
2016-08-25T07:09:14.912Z,31.38
2016-08-25T07:10:30.265Z,31.59
2016-08-25T07:11:43.810Z,31.7
2016-08-25T07:12:56.808Z,31.87
2016-08-25T07:14:10.020Z,31.98
2016-08-25T07:15:23.024Z,32.2
2016-08-25T07:16:36.031Z,32.3
2016-08-25T07:17:49.728Z,32.25
2016-08-25T07:19:04.942Z,32.46
2016-08-25T07:20:18.023Z,32.79
2016-08-25T07:21:31.307Z,32.89
2016-08-25T07:22:44.754Z,32.99
2016-08-25T07:23:57.978Z,33.09
2016-08-25T07:25:11.531Z,33.11
2016-08-25T07:26:26.701Z,33.06
2016-08-25T07:27:41.059Z,33.12
2016-08-25T07:28:54.327Z,33.21
2016-08-25T07:30:07.337Z,33.29
2016-08-25T07:31:20.650Z,33.65
2016-08-25T07:32:33.660Z,33.78
2016-08-25T07:33:47.006Z,34
2016-08-25T07:35:02.152Z,34.29
2016-08-25T07:36:16.204Z,34.26
2016-08-25T07:37:30.460Z,34.3
2016-08-25T07:38:43.539Z,34.45
2016-08-25T07:39:56.686Z,34.48
2016-08-25T07:41:10.119Z,34.58
2016-08-25T07:42:23.186Z,34.43
2016-08-25T07:43:37.770Z,34.41
2016-08-25T07:44:53.255Z,34.54
2016-08-25T07:46:08.675Z,34.71
2016-08-25T07:47:22.839Z,35.01
2016-08-25T07:48:35.891Z,35.11
2016-08-25T07:49:51.770Z,35.26
2016-08-25T07:51:12.557Z,35.45
2016-08-25T07:52:33.816Z,35.31
2016-08-25T07:53:54.838Z,35.33
2016-08-25T07:55:13.820Z,35.26
2016-08-25T07:56:26.857Z,35.46
2016-08-25T07:57:39.892Z,35.34
2016-08-25T07:58:53.662Z,35.43
2016-08-25T08:00:06.880Z,35.64
2016-08-25T08:01:20.082Z,35.72
2016-08-25T08:02:34.734Z,35.74
2016-08-25T08:03:48.690Z,35.87
2016-08-25T08:05:01.708Z,35.74
2016-08-25T08:06:14.926Z,35.84
2016-08-25T08:07:28.214Z,35.77
2016-08-25T08:08:41.244Z,35.82
2016-08-25T08:09:54.249Z,35.89
2016-08-25T08:11:07.264Z,35.65
2016-08-25T08:12:29.465Z,35.57
2016-08-25T08:14:08.380Z,35.8
2016-08-25T08:15:22.448Z,36.06
2016-08-25T08:16:35.514Z,36.24
2016-08-25T08:17:48.751Z,36.33
2016-08-25T08:19:01.775Z,36.37
2016-08-25T08:20:14.779Z,36.61
2016-08-25T08:21:27.818Z,36.67
2016-08-25T08:22:40.838Z,36.28
2016-08-25T08:23:53.853Z,36.22
2016-08-25T08:25:06.878Z,36.14
2016-08-25T08:26:19.899Z,36.09
2016-08-25T08:27:32.903Z,36.25
2016-08-25T08:28:45.926Z,36.28
2016-08-25T08:29:58.948Z,36.12
2016-08-25T08:31:11.967Z,36.21
2016-08-25T08:32:24.975Z,36.14
2016-08-25T08:33:38.178Z,36.17
2016-08-25T08:34:51.204Z,36.44
2016-08-25T08:36:04.413Z,36.61
2016-08-25T08:37:17.686Z,36.39
2016-08-25T08:38:30.913Z,36.59
2016-08-25T08:39:43.929Z,36.96
2016-08-25T08:40:56.939Z,37.05
2016-08-25T08:42:09.941Z,37.11
2016-08-25T08:43:22.950Z,37.04
2016-08-25T08:44:36.000Z,36.86
2016-08-25T08:45:49.209Z,36.77
2016-08-25T08:47:03.756Z,36.62
2016-08-25T08:48:16.901Z,36.55
2016-08-25T08:49:29.902Z,36.8
2016-08-25T08:50:42.903Z,36.68
2016-08-25T08:51:55.933Z,36.68
2016-08-25T08:53:09.731Z,36.58
2016-08-25T08:54:24.215Z,36.67
2016-08-25T08:55:37.511Z,36.63
2016-08-25T08:56:50.523Z,36.88
2016-08-25T08:58:03.634Z,37.26
2016-08-25T08:59:16.706Z,37.41
2016-08-25T09:00:29.719Z,37.09
2016-08-25T09:01:42.865Z,36.95
2016-08-25T09:02:55.874Z,36.83
2016-08-25T09:04:08.888Z,36.81
2016-08-25T09:05:21.924Z,36.74
2016-08-25T09:06:34.934Z,36.7
2016-08-25T09:07:47.980Z,36.59
2016-08-25T09:09:01.026Z,36.4
2016-08-25T09:10:14.051Z,36.55
2016-08-25T09:11:27.078Z,36.55
2016-08-25T09:12:40.084Z,36.56
2016-08-25T09:13:53.095Z,36.51
2016-08-25T09:15:06.110Z,36.33
2016-08-25T09:16:19.142Z,36.41
2016-08-25T09:17:32.361Z,36.51
2016-08-25T09:18:45.381Z,36.44
2016-08-25T09:19:58.390Z,36.28
2016-08-25T09:21:11.396Z,36.3
2016-08-25T09:22:24.401Z,36.4
2016-08-25T09:23:37.435Z,36.58
2016-08-25T09:24:50.575Z,36.61
2016-08-25T09:26:03.839Z,36.51
2016-08-25T09:27:16.866Z,36.59
2016-08-25T09:28:29.880Z,36.53
2016-08-25T09:29:42.916Z,36.63
2016-08-25T09:30:56.156Z,36.7
2016-08-25T09:32:09.159Z,36.7
2016-08-25T09:33:22.172Z,36.83
2016-08-25T09:34:35.187Z,36.96
2016-08-25T09:35:48.406Z,37.08
2016-08-25T09:37:01.431Z,37.04
2016-08-25T09:38:14.434Z,37.08
2016-08-25T09:39:27.434Z,37.14
2016-08-25T09:40:43.083Z,37.23
2016-08-25T09:42:03.003Z,37.41
2016-08-25T09:43:19.138Z,37.37
2016-08-25T09:44:32.154Z,37.19
2016-08-25T09:45:45.219Z,37.3
2016-08-25T09:46:58.515Z,37.17
2016-08-25T09:48:11.542Z,37.09
2016-08-25T09:49:24.751Z,36.97
2016-08-25T09:50:37.769Z,37.15
2016-08-25T09:51:50.843Z,37.09
2016-08-25T09:53:03.883Z,37.08
2016-08-25T09:54:16.892Z,37.08
2016-08-25T09:55:30.001Z,36.99
2016-08-25T09:56:43.234Z,36.8
2016-08-25T09:57:56.898Z,37
2016-08-25T09:59:10.266Z,36.84
2016-08-25T10:00:23.724Z,37.07
2016-08-25T10:01:37.628Z,37.08
2016-08-25T10:02:50.930Z,37.05
2016-08-25T10:04:03.953Z,36.97
2016-08-25T10:05:16.951Z,37.07
2016-08-25T10:06:29.948Z,37.39
2016-08-25T10:07:43.161Z,37.26
2016-08-25T10:08:56.389Z,37.34
2016-08-25T10:10:09.396Z,37.37
2016-08-25T10:11:22.409Z,37.33
2016-08-25T10:12:35.627Z,37.42
2016-08-25T10:13:48.629Z,37.29
2016-08-25T10:15:01.835Z,37.3
2016-08-25T10:16:15.044Z,37.14
2016-08-25T10:17:28.256Z,37.19
2016-08-25T10:18:41.484Z,37.31
2016-08-25T10:19:54.498Z,37.45
2016-08-25T10:21:07.516Z,37.71
2016-08-25T10:22:20.525Z,37.8
2016-08-25T10:23:33.533Z,37.75
2016-08-25T10:24:46.740Z,37.81
2016-08-25T10:25:59.752Z,37.76
2016-08-25T10:27:12.767Z,37.76
2016-08-25T10:28:25.777Z,37.71
2016-08-25T10:29:38.780Z,37.46
2016-08-25T10:30:51.816Z,37.19
2016-08-25T10:32:04.820Z,37.17
2016-08-25T10:33:17.833Z,37.18
2016-08-25T10:34:30.852Z,37.23
2016-08-25T10:35:43.872Z,37.18
2016-08-25T10:36:56.880Z,37.22
2016-08-25T10:38:10.089Z,37.18
2016-08-25T10:39:23.089Z,37.24
2016-08-25T10:40:36.304Z,37.24
2016-08-25T10:41:49.324Z,37.23
2016-08-25T10:43:02.347Z,37.22
2016-08-25T10:44:15.566Z,37.26
2016-08-25T10:45:28.567Z,37.23
2016-08-25T10:46:41.561Z,37.29
2016-08-25T10:47:54.567Z,37.19
2016-08-25T10:49:07.577Z,37.09
2016-08-25T10:50:20.782Z,36.86
2016-08-25T10:51:33.788Z,36.81
2016-08-25T10:52:46.835Z,37
2016-08-25T10:53:59.842Z,36.86
2016-08-25T10:55:12.842Z,36.84
2016-08-25T10:56:25.849Z,37.05
2016-08-25T10:57:38.853Z,37.23
2016-08-25T10:58:53.607Z,37.33
2016-08-25T11:00:07.835Z,37.42
2016-08-25T11:01:22.198Z,37.56
2016-08-25T11:02:35.714Z,37.54
2016-08-25T11:03:50.670Z,37.61
2016-08-25T11:05:05.124Z,37.44
2016-08-25T11:06:19.037Z,37.29
2016-08-25T11:07:36.977Z,37.45
2016-08-25T11:08:51.418Z,37.79
2016-08-25T11:10:05.014Z,37.86
2016-08-25T11:11:18.363Z,38.02
2016-08-25T11:12:32.096Z,37.93
2016-08-25T11:13:46.147Z,37.88
2016-08-25T11:14:59.165Z,37.61
2016-08-25T11:16:12.242Z,37.31
2016-08-25T11:17:25.290Z,37.22
2016-08-25T11:18:38.297Z,37.31
2016-08-25T11:19:51.291Z,37.22
2016-08-25T11:21:04.502Z,37.41
2016-08-25T11:22:17.723Z,37.51
2016-08-25T11:23:30.727Z,37.45
2016-08-25T11:24:43.727Z,37.42
2016-08-25T11:25:56.747Z,37.69
2016-08-25T11:27:09.756Z,37.84
2016-08-25T11:28:22.787Z,37.87
2016-08-25T11:29:35.784Z,37.66
2016-08-25T11:30:48.789Z,37.75
2016-08-25T11:32:01.786Z,37.66
2016-08-25T11:33:14.803Z,37.69
2016-08-25T11:34:27.818Z,37.76
2016-08-25T11:35:40.819Z,37.57
2016-08-25T11:36:53.819Z,37.66
2016-08-25T11:38:06.821Z,37.65
2016-08-25T11:39:19.822Z,37.87
2016-08-25T11:40:32.836Z,37.96
2016-08-25T11:41:45.844Z,37.99
2016-08-25T11:42:58.855Z,38.13
2016-08-25T11:44:11.882Z,38.27
2016-08-25T11:45:25.088Z,38.36
2016-08-25T11:46:39.266Z,38.27
2016-08-25T11:47:55.647Z,38.22
2016-08-25T11:49:10.879Z,37.98
2016-08-25T11:50:24.062Z,37.75
2016-08-25T11:51:37.072Z,37.9
2016-08-25T11:52:50.080Z,38.15
2016-08-25T11:54:03.110Z,38.28
2016-08-25T11:55:16.111Z,38.35
2016-08-25T11:56:29.135Z,38.31
2016-08-25T11:57:42.147Z,38.52
2016-08-25T11:58:55.153Z,38.5
2016-08-25T12:00:08.207Z,38.49
2016-08-25T12:01:21.212Z,38.4
2016-08-25T12:02:34.213Z,38.33
2016-08-25T12:03:47.201Z,38.2
2016-08-25T12:05:00.214Z,38.31
2016-08-25T12:06:13.425Z,38.35
2016-08-25T12:07:26.435Z,38.56
2016-08-25T12:08:39.435Z,38.66
2016-08-25T12:09:52.442Z,38.8
2016-08-25T12:11:05.457Z,38.84
2016-08-25T12:12:18.470Z,39.08
2016-08-25T12:13:31.463Z,39
2016-08-25T12:14:44.476Z,38.92
2016-08-25T12:15:57.476Z,38.81
2016-08-25T12:17:10.506Z,38.73
2016-08-25T12:18:23.513Z,38.8
2016-08-25T12:19:36.530Z,38.62
2016-08-25T12:20:49.755Z,38.68
2016-08-25T12:22:02.773Z,38.65
2016-08-25T12:23:15.780Z,38.59
2016-08-25T12:24:28.783Z,38.58
2016-08-25T12:25:41.794Z,38.55
2016-08-25T12:26:54.789Z,38.56
2016-08-25T12:28:07.814Z,38.42
2016-08-25T12:29:20.814Z,38.3
2016-08-25T12:30:33.894Z,38.28
2016-08-25T12:31:46.911Z,38.25
2016-08-25T12:32:59.919Z,38.18
2016-08-25T12:34:13.115Z,38.12
2016-08-25T12:35:26.317Z,38.15
2016-08-25T12:36:39.360Z,38.12
2016-08-25T12:37:52.365Z,37.98
2016-08-25T12:39:05.365Z,37.93
2016-08-25T12:40:18.359Z,37.69
2016-08-25T12:41:31.406Z,37.39
2016-08-25T12:42:44.612Z,37.39
2016-08-25T12:43:57.812Z,37.53
2016-08-25T12:45:10.915Z,37.57
2016-08-25T12:46:24.116Z,37.69
2016-08-25T12:47:37.121Z,37.69
2016-08-25T12:48:50.132Z,37.69
2016-08-25T12:50:03.133Z,37.69
2016-08-25T12:51:16.345Z,37.69
2016-08-25T12:52:29.743Z,37.71
2016-08-25T12:53:42.757Z,37.74
2016-08-25T12:54:55.766Z,37.64
2016-08-25T12:56:08.768Z,37.66
2016-08-25T12:57:21.969Z,37.59
2016-08-25T12:58:35.185Z,37.41
2016-08-25T12:59:48.190Z,37.41
2016-08-25T13:01:01.247Z,37.24
2016-08-25T13:02:14.267Z,37.14
2016-08-25T13:03:27.271Z,36.99
2016-08-25T13:04:40.271Z,36.78
2016-08-25T13:05:53.297Z,36.44
2016-08-25T13:07:06.296Z,36.25
2016-08-25T13:08:19.304Z,36.3
2016-08-25T13:09:32.293Z,36.26
2016-08-25T13:10:45.525Z,36.3
2016-08-25T13:11:58.546Z,36.47
2016-08-25T13:13:11.747Z,36.47
2016-08-25T13:14:24.751Z,36.24
2016-08-25T13:15:37.774Z,36.22
2016-08-25T13:16:50.769Z,36.09
2016-08-25T13:18:03.781Z,35.98
2016-08-25T13:19:17.087Z,35.82
2016-08-25T13:20:30.580Z,35.76
2016-08-25T13:21:43.610Z,35.69
2016-08-25T13:22:56.605Z,35.69
2016-08-25T13:24:09.602Z,35.64
2016-08-25T13:25:22.802Z,35.57
2016-08-25T13:26:35.817Z,35.55
2016-08-25T13:27:48.835Z,35.5
2016-08-25T13:29:01.831Z,35.34
2016-08-25T13:30:14.830Z,35.46
2016-08-25T13:31:27.829Z,35.43
2016-08-25T13:32:40.835Z,35.47
2016-08-25T13:33:54.040Z,35.46
2016-08-25T13:35:07.055Z,35.42
2016-08-25T13:36:20.053Z,35.58
2016-08-25T13:37:33.047Z,35.46
2016-08-25T13:38:46.254Z,35.46
2016-08-25T13:39:59.247Z,35.31
2016-08-25T13:41:12.264Z,35.33
2016-08-25T13:42:25.468Z,35.3
2016-08-25T13:43:38.463Z,35.39
2016-08-25T13:44:51.458Z,35.43
2016-08-25T13:46:04.460Z,35.5
2016-08-25T13:47:17.459Z,35.45
2016-08-25T13:48:30.457Z,35.46
2016-08-25T13:49:43.450Z,35.55
2016-08-25T13:50:56.453Z,35.65
2016-08-25T13:52:09.447Z,35.52
2016-08-25T13:53:22.454Z,35.5
2016-08-25T13:54:35.649Z,35.57
2016-08-25T13:55:48.650Z,35.52
2016-08-25T13:57:01.643Z,35.62
2016-08-25T13:58:14.659Z,35.61
2016-08-25T13:59:27.652Z,35.38
2016-08-25T14:00:40.665Z,35.3
2016-08-25T14:01:53.711Z,35.23
2016-08-25T14:03:06.707Z,35.18
2016-08-25T14:04:19.904Z,35.28
2016-08-25T14:05:32.918Z,35.28
2016-08-25T14:06:45.913Z,35.34
2016-08-25T14:07:59.415Z,35.35
2016-08-25T14:09:13.136Z,35.31
2016-08-25T14:10:26.128Z,35.23
2016-08-25T14:11:39.143Z,35.2
2016-08-25T14:12:52.140Z,35.23
2016-08-25T14:14:05.131Z,35.06
2016-08-25T14:15:18.142Z,35.13
2016-08-25T14:16:31.154Z,35.27
2016-08-25T14:17:44.152Z,35.26
2016-08-25T14:18:57.155Z,35.27
2016-08-25T14:20:10.156Z,35.24
2016-08-25T14:21:23.706Z,35.28
2016-08-25T14:22:36.741Z,35.27
2016-08-25T14:23:58.274Z,35.33
2016-08-25T14:25:11.811Z,35.39
2016-08-25T14:26:29.206Z,35.42
2016-08-25T14:27:42.481Z,35.38
2016-08-25T14:28:55.525Z,35.42
2016-08-25T14:30:08.544Z,35.35
2016-08-25T14:31:21.557Z,35.3
2016-08-25T14:32:34.558Z,35.35
2016-08-25T14:33:47.557Z,35.28
2016-08-25T14:35:00.553Z,35.27
2016-08-25T14:36:13.551Z,35.13
2016-08-25T14:37:26.565Z,35.12
2016-08-25T14:38:39.760Z,34.99
2016-08-25T14:39:52.755Z,35.04
2016-08-25T14:41:05.748Z,34.93
2016-08-25T14:42:18.749Z,34.84
2016-08-25T14:43:31.740Z,34.83
2016-08-25T14:44:44.953Z,34.84
2016-08-25T14:45:57.944Z,34.86
2016-08-25T14:47:11.143Z,34.87
2016-08-25T14:48:24.145Z,34.75
2016-08-25T14:49:37.135Z,34.71
2016-08-25T14:50:50.338Z,34.61
2016-08-25T14:52:03.930Z,34.52
2016-08-25T14:53:17.154Z,34.48
2016-08-25T14:54:30.157Z,34.48
2016-08-25T14:55:43.163Z,34.49
2016-08-25T14:56:56.355Z,34.49
2016-08-25T14:58:09.353Z,34.48
2016-08-25T14:59:22.549Z,34.46
2016-08-25T15:00:35.543Z,34.41
2016-08-25T15:01:48.584Z,34.4
2016-08-25T15:03:01.582Z,34.39
2016-08-25T15:04:14.780Z,34.32
2016-08-25T15:05:27.780Z,34.22
2016-08-25T15:06:40.770Z,34.18
2016-08-25T15:07:53.758Z,34.17
2016-08-25T15:09:06.744Z,34.21
2016-08-25T15:10:19.737Z,34.08
2016-08-25T15:11:32.740Z,34.05
2016-08-25T15:12:45.732Z,33.92
2016-08-25T15:13:59.101Z,33.97
2016-08-25T15:15:12.228Z,33.93
2016-08-25T15:16:25.227Z,33.93
2016-08-25T15:17:38.230Z,33.93
2016-08-25T15:18:51.217Z,33.87
2016-08-25T15:20:04.214Z,33.87
2016-08-25T15:21:17.221Z,33.85
2016-08-25T15:22:30.218Z,33.77
2016-08-25T15:23:43.229Z,33.75
2016-08-25T15:24:56.237Z,33.8
2016-08-25T15:26:09.251Z,33.77
2016-08-25T15:27:22.257Z,33.71
2016-08-25T15:28:35.253Z,33.73
2016-08-25T15:29:48.246Z,33.66
2016-08-25T15:31:01.440Z,33.61
2016-08-25T15:32:14.461Z,33.55
2016-08-25T15:33:27.453Z,33.46
2016-08-25T15:34:40.453Z,33.52
2016-08-25T15:35:53.459Z,33.44
2016-08-25T15:37:06.452Z,33.4
2016-08-25T15:38:19.443Z,33.43
2016-08-25T15:39:32.444Z,33.43
2016-08-25T15:40:45.444Z,33.37
2016-08-25T15:41:58.640Z,33.39
2016-08-25T15:43:11.636Z,33.4
2016-08-25T15:44:24.623Z,33.4
2016-08-25T15:45:37.618Z,33.39
2016-08-25T15:46:50.651Z,33.34